Time;durP1;ratioP1;P1;durP2;ratioP2;P2;SDS_P1;SDS_P2;PMS_P1;PMS_P2;Temp;Humidity;BMP_temperature;BMP_pressure;BME280_temperature;BME280_humidity;BME280_pressure;Samples;Min_cycle;Max_cycle;Signal;HPM_P1;HPM_P2
2022/03/29 00:01:39;;;;;;;0.10;0.10;;;7.40;99.90;;;;;;4969153;28;20634;-72
2022/03/29 00:04:06;;;;;;;0.10;0.10;;;7.40;99.90;;;;;;4970507;28;20593;-72
2022/03/29 00:06:34;;;;;;;0.13;0.13;;;8.20;99.90;;;;;;4970394;28;20617;-72
2022/03/29 00:09:01;;;;;;;0.10;0.10;;;7.50;99.90;;;;;;5000731;28;20666;-72
2022/03/29 00:11:28;;;;;;;0.10;0.10;;;7.40;99.90;;;;;;5001722;28;20669;-71
2022/03/29 00:13:55;;;;;;;0.10;0.10;;;7.40;99.90;;;;;;4985539;28;20720;-72
2022/03/29 00:16:21;;;;;;;0.10;0.10;;;7.60;99.90;;;;;;4984489;28;20645;-72
2022/03/29 00:18:48;;;;;;;0.10;0.10;;;7.50;99.90;;;;;;4986887;28;20724;-72
2022/03/29 00:21:16;;;;;;;0.10;0.10;;;7.50;99.90;;;;;;4968675;28;20641;-72
2022/03/29 00:23:44;;;;;;;0.20;0.20;;;7.60;99.90;;;;;;4972952;28;20659;-72
2022/03/29 00:26:10;;;;;;;0.10;0.10;;;7.50;99.90;;;;;;4969575;28;20633;-72
2022/03/29 00:28:37;;;;;;;0.10;0.10;;;7.50;99.90;;;;;;4969372;28;20668;-72
2022/03/29 00:31:04;;;;;;;0.10;0.10;;;7.40;99.90;;;;;;4969256;28;20669;-72
2022/03/29 00:33:31;;;;;;;0.10;0.10;;;7.50;99.90;;;;;;4969234;28;20617;-71
2022/03/29 00:35:58;;;;;;;0.10;0.10;;;7.40;99.90;;;;;;4985735;28;20664;-72
2022/03/29 00:38:25;;;;;;;0.10;0.10;;;7.40;99.90;;;;;;4968984;28;20724;-72
2022/03/29 00:40:53;;;;;;;0.10;0.10;;;7.30;99.90;;;;;;4970279;28;20724;-72
2022/03/29 00:43:20;;;;;;;0.10;0.10;;;7.30;99.90;;;;;;4979214;28;21033;-72
2022/03/29 00:45:48;;;;;;;0.10;0.10;;;;;;;;;;4978770;28;20609;-73
2022/03/29 00:48:15;;;;;;;0.10;0.10;;;;;;;;;;4975983;28;21190;-72
2022/03/29 00:50:43;;;;;;;0.10;0.10;;;;;;;;;;4969964;28;20735;-72
2022/03/29 00:53:11;;;;;;;0.10;0.10;;;;;;;;;;4972357;28;20645;-72
2022/03/29 00:55:39;;;;;;;0.10;0.10;;;;;;;;;;4973643;28;20617;-72
2022/03/29 00:58:08;;;;;;;0.10;0.10;;;;;;;;;;4973551;28;20648;-72
2022/03/29 01:00:35;;;;;;;0.10;0.10;;;;;;;;;;4973648;28;20649;-72
2022/03/29 01:03:03;;;;;;;0.10;0.10;;;;;;;;;;4972780;28;20643;-72
2022/03/29 01:05:31;;;;;;;0.10;0.10;;;;;;;;;;4971985;28;21201;-72
2022/03/29 01:07:58;;;;;;;0.10;0.10;;;;;;;;;;4972612;28;20640;-72
2022/03/29 01:10:25;;;;;;;0.10;0.10;;;;;;;;;;4977780;28;20696;-72
2022/03/29 01:12:54;;;;;;;0.10;0.10;;;;;;;;;;4972644;28;20749;-72
2022/03/29 01:15:24;;;;;;;0.20;0.20;;;;;;;;;;4972359;28;20620;-71
2022/03/29 01:17:51;;;;;;;0.10;0.10;;;;;;;;;;4973365;28;20633;-72
2022/03/29 01:20:19;;;;;;;0.10;0.10;;;;;;;;;;4967341;28;20667;-72
2022/03/29 01:22:48;;;;;;;0.10;0.10;;;;;;;;;;4974265;28;20703;-72
2022/03/29 01:25:16;;;;;;;0.10;0.10;;;;;;;;;;4972627;28;20617;-72
2022/03/29 01:27:45;;;;;;;0.20;0.20;;;;;;;;;;4972024;28;21070;-72
2022/03/29 01:30:13;;;;;;;0.10;0.10;;;;;;;;;;4972831;28;20684;-71
2022/03/29 01:32:41;;;;;;;0.10;0.10;;;;;;;;;;4975095;28;20748;-72
2022/03/29 01:35:08;;;;;;;0.10;0.10;;;;;;;;;;4972070;28;20759;-72
2022/03/29 01:37:36;;;;;;;0.20;0.20;;;7.30;99.90;;;;;;4972852;28;20683;-72
2022/03/29 01:40:08;;;;;;;0.10;0.10;;;7.40;99.90;;;;;;4972169;28;20700;-72
2022/03/29 01:42:35;;;;;;;0.10;0.10;;;7.40;99.90;;;;;;4987740;28;20634;-73
2022/03/29 01:45:02;;;;;;;0.20;0.20;;;7.40;99.90;;;;;;4979992;28;20672;-72
2022/03/29 01:47:29;;;;;;;0.10;0.10;;;7.40;99.90;;;;;;4971461;28;20664;-73
2022/03/29 01:49:56;;;;;;;0.10;0.10;;;7.40;99.90;;;;;;4993040;28;20656;-72
2022/03/29 01:52:23;;;;;;;0.10;0.10;;;7.30;99.90;;;;;;4970450;28;20657;-72
2022/03/29 01:54:50;;;;;;;0.10;0.10;;;7.30;99.90;;;;;;4970611;28;20629;-72
2022/03/29 01:57:18;;;;;;;0.10;0.10;;;7.20;99.90;;;;;;4974050;28;20855;-72
2022/03/29 02:02:29;;;;;;;0.20;0.20;;;7.20;99.90;;;;;;4974275;28;20606;-72
2022/03/29 02:04:56;;;;;;;0.10;0.10;;;7.20;99.90;;;;;;4971288;28;20680;-72
2022/03/29 02:07:23;;;;;;;0.10;0.10;;;7.20;99.90;;;;;;4969236;28;20634;-72
2022/03/29 02:09:50;;;;;;;0.20;0.20;;;7.20;99.90;;;;;;4972600;28;20664;-72
2022/03/29 02:12:19;;;;;;;0.10;0.10;;;7.20;99.90;;;;;;4987700;28;20665;-72
2022/03/29 02:14:45;;;;;;;0.10;0.10;;;7.20;99.90;;;;;;4972563;28;20621;-72
2022/03/29 02:17:12;;;;;;;0.10;0.10;;;7.20;99.90;;;;;;4988332;28;20613;-72
2022/03/29 02:19:39;;;;;;;0.10;0.10;;;7.20;99.90;;;;;;4974982;28;20648;-73
2022/03/29 02:22:06;;;;;;;0.10;0.10;;;7.20;99.90;;;;;;4970698;28;21157;-72
2022/03/29 02:24:33;;;;;;;0.10;0.10;;;7.20;99.90;;;;;;4972207;28;20618;-73
2022/03/29 02:27:00;;;;;;;0.10;0.10;;;7.30;99.90;;;;;;4989618;28;20684;-72
2022/03/29 02:29:28;;;;;;;0.10;0.10;;;7.20;99.90;;;;;;4972707;28;20930;-73
2022/03/29 02:31:55;;;;;;;0.10;0.10;;;;;;;;;;4970621;28;20654;-72
2022/03/29 02:34:22;;;;;;;0.10;0.10;;;;;;;;;;5003408;28;20672;-72
2022/03/29 02:36:50;;;;;;;0.10;0.10;;;;;;;;;;4970301;28;20637;-72
2022/03/29 02:39:18;;;;;;;0.20;0.20;;;;;;;;;;4971998;28;20649;-72
2022/03/29 02:41:45;;;;;;;0.10;0.10;;;;;;;;;;4970307;28;20669;-72
2022/03/29 02:44:12;;;;;;;0.10;0.10;;;;;;;;;;4970729;28;20621;-71
2022/03/29 02:46:41;;;;;;;0.10;0.10;;;;;;;;;;4970808;28;20680;-73
2022/03/29 02:49:09;;;;;;;0.10;0.10;;;;;;;;;;4970076;28;20665;-72
2022/03/29 02:51:36;;;;;;;0.10;0.10;;;;;;;;;;4970285;28;20621;-72
2022/03/29 02:54:05;;;;;;;0.10;0.10;;;;;;;;;;4971726;28;20672;-72
2022/03/29 02:56:32;;;;;;;0.20;0.20;;;;;;;;;;4970826;28;20632;-73
2022/03/29 02:59:00;;;;;;;0.10;0.10;;;;;;;;;;4977565;28;20652;-72
2022/03/29 03:01:29;;;;;;;0.10;0.10;;;;;;;;;;4970453;28;20637;-72
2022/03/29 03:03:58;;;;;;;0.20;0.20;;;;;;;;;;4970994;28;20621;-72
2022/03/29 03:06:25;;;;;;;0.10;0.10;;;;;;;;;;4974535;28;20637;-72
2022/03/29 03:08:53;;;;;;;0.20;0.20;;;;;;;;;;4972036;28;20627;-72
2022/03/29 03:11:20;;;;;;;0.10;0.10;;;;;;;;;;5001829;28;20685;-72
2022/03/29 03:13:47;;;;;;;0.10;0.10;;;;;;;;;;4970306;28;20668;-72
2022/03/29 03:16:15;;;;;;;0.10;0.10;;;;;;;;;;4969827;28;20627;-72
2022/03/29 03:18:42;;;;;;;0.20;0.20;;;;;;;;;;4971944;28;20642;-73
2022/03/29 03:21:11;;;;;;;0.10;0.10;;;;;;;;;;4969770;28;20675;-73
2022/03/29 03:23:38;;;;;;;0.13;0.13;;;;;;;;;;4968263;28;20608;-72
2022/03/29 03:26:05;;;;;;;0.17;0.17;;;;;;;;;;4969427;28;20653;-71
2022/03/29 03:28:33;;;;;;;0.10;0.10;;;;;;;;;;4970160;28;20700;-72
2022/03/29 03:31:01;;;;;;;0.10;0.10;;;;;;;;;;4970424;28;20660;-72
2022/03/29 03:33:29;;;;;;;0.10;0.10;;;;;;;;;;5003362;28;20658;-72
2022/03/29 03:35:56;;;;;;;0.10;0.10;;;;;;;;;;4971011;28;20592;-73
2022/03/29 03:38:25;;;;;;;0.10;0.10;;;;;;;;;;4968637;28;20625;-73
2022/03/29 03:40:52;;;;;;;0.10;0.10;;;;;;;;;;4970957;28;21108;-72
2022/03/29 03:43:19;;;;;;;0.10;0.10;;;;;;;;;;5001693;28;20654;-72
2022/03/29 03:45:47;;;;;;;0.10;0.10;;;;;;;;;;4974730;28;20636;-72
2022/03/29 03:48:14;;;;;;;0.10;0.10;;;;;;;;;;5001597;28;20641;-71
2022/03/29 03:50:41;;;;;;;0.10;0.10;;;;;;;;;;4969979;28;20661;-73
2022/03/29 03:53:09;;;;;;;0.10;0.10;;;;;;;;;;4969674;28;20725;-73
2022/03/29 03:55:37;;;;;;;0.10;0.10;;;;;;;;;;4969349;28;20723;-72
2022/03/29 03:58:05;;;;;;;0.10;0.10;;;;;;;;;;4970782;28;20605;-72
2022/03/29 04:00:32;;;;;;;0.10;0.10;;;;;;;;;;4969579;28;20685;-72
2022/03/29 04:03:01;;;;;;;0.13;0.13;;;;;;;;;;4971047;28;20631;-72
2022/03/29 04:05:28;;;;;;;0.10;0.10;;;;;;;;;;4971414;28;20635;-72
2022/03/29 04:07:55;;;;;;;0.10;0.10;;;;;;;;;;5002125;28;20786;-73
2022/03/29 04:10:23;;;;;;;0.10;0.10;;;;;;;;;;4972233;28;20232;-72
2022/03/29 04:12:51;;;;;;;0.10;0.10;;;;;;;;;;4971703;28;20660;-72
2022/03/29 04:15:18;;;;;;;0.10;0.10;;;;;;;;;;4971150;28;20645;-72
2022/03/29 04:17:46;;;;;;;0.10;0.10;;;;;;;;;;4973208;28;20673;-72
2022/03/29 04:20:13;;;;;;;0.20;0.20;;;;;;;;;;4972450;28;20748;-72
2022/03/29 04:22:40;;;;;;;0.10;0.10;;;;;;;;;;4972704;28;21215;-72
2022/03/29 04:25:08;;;;;;;0.10;0.10;;;;;;;;;;4973012;28;20700;-73
2022/03/29 04:27:35;;;;;;;0.10;0.10;;;;;;;;;;4972959;28;21260;-72
2022/03/29 04:30:04;;;;;;;0.10;0.10;;;;;;;;;;4972795;28;20665;-71
2022/03/29 04:32:31;;;;;;;0.10;0.10;;;;;;;;;;4972894;28;20654;-72
2022/03/29 04:34:58;;;;;;;0.10;0.10;;;;;;;;;;4971460;28;20647;-72
2022/03/29 04:37:26;;;;;;;0.10;0.10;;;;;;;;;;5004526;28;20665;-72
2022/03/29 04:39:53;;;;;;;0.10;0.10;;;;;;;;;;4973988;28;20637;-73
2022/03/29 04:42:20;;;;;;;0.10;0.10;;;;;;;;;;4966696;28;20677;-67
2022/03/29 04:44:48;;;;;;;0.20;0.20;;;;;;;;;;4967906;28;20649;-68
2022/03/29 04:47:16;;;;;;;0.10;0.10;;;;;;;;;;4982330;28;20632;-67
2022/03/29 04:49:43;;;;;;;0.10;0.10;;;;;;;;;;4969011;28;20756;-73
2022/03/29 04:52:12;;;;;;;0.10;0.10;;;;;;;;;;4995411;28;20618;-73
2022/03/29 04:54:39;;;;;;;0.10;0.10;;;;;;;;;;4980123;28;20710;-73
2022/03/29 04:57:06;;;;;;;0.10;0.10;;;;;;;;;;4967134;28;20620;-73
2022/03/29 04:59:33;;;;;;;0.10;0.10;;;;;;;;;;4970496;28;20669;-73
2022/03/29 05:02:00;;;;;;;0.10;0.10;;;;;;;;;;4974696;28;20720;-73
2022/03/29 05:04:29;;;;;;;0.10;0.10;;;;;;;;;;4972052;28;21043;-73
2022/03/29 05:06:56;;;;;;;0.10;0.10;;;;;;;;;;4968543;28;20620;-73
2022/03/29 05:09:23;;;;;;;0.10;0.10;;;;;;;;;;4964576;28;20680;-72
2022/03/29 05:11:50;;;;;;;0.10;0.10;;;;;;;;;;4979585;28;20621;-73
2022/03/29 05:14:17;;;;;;;0.10;0.10;;;;;;;;;;4971220;28;20665;-73
2022/03/29 05:16:44;;;;;;;0.10;0.10;;;;;;;;;;4985204;28;20639;-73
2022/03/29 05:19:12;;;;;;;0.20;0.20;;;;;;;;;;5007025;28;20714;-73
2022/03/29 05:21:40;;;;;;;0.10;0.10;;;;;;;;;;5016099;23;20730;-71
2022/03/29 05:24:08;;;;;;;0.10;0.10;;;;;;;;;;5007858;28;20655;-71
2022/03/29 05:26:35;;;;;;;0.10;0.10;;;;;;;;;;5008079;28;20607;-71
2022/03/29 05:29:03;;;;;;;0.10;0.10;;;;;;;;;;5007975;28;20662;-72
2022/03/29 05:31:30;;;;;;;0.10;0.10;;;;;;;;;;5008588;28;21158;-71
2022/03/29 05:33:58;;;;;;;0.00;0.00;;;;;;;;;;5029249;28;20713;-71
2022/03/29 05:36:25;;;;;;;0.10;0.10;;;;;;;;;;5009438;28;20615;-72
2022/03/29 05:38:54;;;;;;;0.10;0.10;;;;;;;;;;5026499;28;20983;-71
2022/03/29 05:41:21;;;;;;;0.10;0.10;;;;;;;;;;5013692;28;20635;-72
2022/03/29 05:43:49;;;;;;;0.10;0.10;;;;;;;;;;5007926;28;20624;-71
2022/03/29 05:49:02;;;;;;;0.10;0.10;;;;;;;;;;5010175;28;20620;-72
2022/03/29 05:51:31;;;;;;;0.10;0.10;;;;;;;;;;5006702;28;20690;-72
2022/03/29 05:54:00;;;;;;;0.10;0.10;;;;;;;;;;5013269;28;21273;-71
2022/03/29 05:56:28;;;;;;;0.10;0.10;;;;;;;;;;5026084;28;20617;-71
2022/03/29 05:58:55;;;;;;;0.10;0.10;;;;;;;;;;5017476;28;21218;-71
2022/03/29 06:01:22;;;;;;;0.20;0.20;;;;;;;;;;5028336;28;20666;-74
2022/03/29 06:03:50;;;;;;;0.20;0.20;;;;;;;;;;5008521;28;20623;-72
2022/03/29 06:06:17;;;;;;;0.10;0.10;;;;;;;;;;5030860;28;20641;-71
2022/03/29 06:08:45;;;;;;;0.10;0.10;;;;;;;;;;5006823;28;20619;-70
2022/03/29 06:11:14;;;;;;;0.10;0.10;;;;;;;;;;5010236;28;20730;-69
2022/03/29 06:13:41;;;;;;;0.10;0.10;;;;;;;;;;5007996;28;20757;-71
2022/03/29 06:16:09;;;;;;;0.10;0.10;;;;;;;;;;5008499;28;20634;-72
2022/03/29 06:18:37;;;;;;;0.10;0.10;;;;;;;;;;5006612;28;20660;-72
2022/03/29 06:21:04;;;;;;;0.10;0.10;;;;;;;;;;5009088;28;20667;-71
2022/03/29 06:23:32;;;;;;;0.10;0.10;;;;;;;;;;5007868;28;21168;-71
2022/03/29 06:26:00;;;;;;;0.10;0.10;;;;;;;;;;5024950;28;20627;-70
2022/03/29 06:28:29;;;;;;;0.10;0.10;;;;;;;;;;5028483;28;20728;-70
2022/03/29 06:30:58;;;;;;;0.10;0.10;;;;;;;;;;5021138;28;20666;-72
2022/03/29 06:33:26;;;;;;;0.10;0.10;;;;;;;;;;5022935;28;20683;-71
2022/03/29 06:35:53;;;;;;;0.10;0.10;;;;;;;;;;5006027;28;20635;-71
2022/03/29 06:38:22;;;;;;;0.10;0.10;;;;;;;;;;5024059;28;20634;-71
2022/03/29 06:40:50;;;;;;;0.10;0.10;;;;;;;;;;5017648;28;20700;-71
2022/03/29 06:43:17;;;;;;;0.10;0.10;;;;;;;;;;5005743;28;20630;-71
2022/03/29 06:45:46;;;;;;;0.10;0.10;;;;;;;;;;5023842;28;20644;-71
2022/03/29 06:48:13;;;;;;;0.10;0.10;;;;;;;;;;5025059;28;20624;-71
2022/03/29 06:50:40;;;;;;;0.10;0.10;;;;;;;;;;5005101;28;20643;-70
2022/03/29 06:53:08;;;;;;;0.10;0.10;;;;;;;;;;5011080;28;21246;-71
2022/03/29 06:55:36;;;;;;;0.10;0.10;;;;;;;;;;5001977;28;20626;-71
2022/03/29 06:58:03;;;;;;;0.10;0.10;;;;;;;;;;4999413;28;20645;-71
2022/03/29 07:00:31;;;;;;;0.10;0.10;;;;;;;;;;4996353;28;21242;-71
2022/03/29 07:02:59;;;;;;;0.10;0.10;;;;;;;;;;5016993;28;20620;-70
2022/03/29 07:05:27;;;;;;;0.10;0.10;;;;;;;;;;5007096;28;20631;-70
2022/03/29 07:07:55;;;;;;;0.20;0.20;;;;;;;;;;5023211;28;20635;-71
2022/03/29 07:13:07;;;;;;;0.10;0.10;;;;;;;;;;5026804;28;20779;-71
2022/03/29 07:15:35;;;;;;;0.10;0.10;;;;;;;;;;5007638;28;20619;-70
2022/03/29 07:18:03;;;;;;;0.10;0.10;;;;;;;;;;5003239;28;20659;-68
2022/03/29 07:20:31;;;;;;;0.10;0.10;;;;;;;;;;5004419;28;20667;-70
2022/03/29 07:22:58;;;;;;;0.10;0.10;;;;;;;;;;5018597;28;20651;-70
2022/03/29 07:25:31;;;;;;;0.10;0.10;;;;;;;;;;5027776;28;20677;-69
2022/03/29 07:27:59;;;;;;;0.10;0.10;;;;;;;;;;5002939;28;20690;-71
2022/03/29 07:30:26;;;;;;;0.10;0.10;;;;;;;;;;5006645;28;20648;-70
2022/03/29 07:32:54;;;;;;;0.10;0.10;;;;;;;;;;5006014;28;20647;-70
2022/03/29 07:35:24;;;;;;;0.10;0.10;;;;;;;;;;5005899;28;20644;-70
2022/03/29 07:37:51;;;;;;;0.10;0.10;;;;;;;;;;5006260;28;20631;-69
2022/03/29 07:40:20;;;;;;;0.10;0.10;;;;;;;;;;5023842;28;20666;-70
2022/03/29 07:42:49;;;;;;;0.10;0.10;;;;;;;;;;5005325;28;20626;-70
2022/03/29 07:45:17;;;;;;;0.10;0.10;;;;;;;;;;5009586;28;20638;-71
2022/03/29 07:47:44;;;;;;;0.10;0.10;;;;;;;;;;5006536;28;20632;-72
2022/03/29 07:50:12;;;;;;;0.10;0.10;;;;;;;;;;5019453;28;20675;-70
2022/03/29 07:52:41;;;;;;;0.20;0.20;;;;;;;;;;5011005;28;20620;-71
2022/03/29 07:55:30;;;;;;;0.10;0.10;;;;;;;;;;5010138;28;20595;-72
2022/03/29 07:57:58;;;;;;;0.10;0.10;;;;;;;;;;5016279;28;20729;-71
2022/03/29 08:00:35;;;;;;;0.10;0.10;;;;;;;;;;5027402;28;20698;-69
2022/03/29 08:03:04;;;;;;;0.20;0.20;;;;;;;;;;5019991;28;20618;-70
2022/03/29 08:05:31;;;;;;;0.10;0.10;;;;;;;;;;5008429;28;20609;-68
2022/03/29 08:08:01;;;;;;;0.10;0.10;;;;;;;;;;5025594;28;20635;-68
2022/03/29 08:10:29;;;;;;;0.10;0.10;;;;;;;;;;5025769;28;20663;-70
2022/03/29 08:12:57;;;;;;;0.10;0.10;;;;;;;;;;5022938;28;20630;-69
2022/03/29 08:15:24;;;;;;;0.10;0.10;;;;;;;;;;5009548;28;20746;-69
2022/03/29 08:17:51;;;;;;;0.10;0.10;;;;;;;;;;5026883;28;20634;-70
2022/03/29 08:20:19;;;;;;;0.20;0.20;;;;;;;;;;5005300;28;20678;-69
2022/03/29 08:22:47;;;;;;;0.10;0.10;;;;;;;;;;5012150;28;20623;-70
2022/03/29 08:25:16;;;;;;;0.10;0.10;;;;;;;;;;5015860;28;20749;-69
2022/03/29 08:27:43;;;;;;;0.10;0.10;;;;;;;;;;5013932;28;20616;-69
2022/03/29 08:30:11;;;;;;;0.10;0.10;;;;;;;;;;5009774;28;20651;-68
2022/03/29 08:32:39;;;;;;;0.10;0.10;;;;;;;;;;5009189;28;20631;-68
2022/03/29 08:35:07;;;;;;;0.10;0.10;;;;;;;;;;5026466;28;20693;-68
2022/03/29 08:37:36;;;;;;;0.10;0.10;;;;;;;;;;5010298;28;20618;-69
2022/03/29 08:40:04;;;;;;;0.10;0.10;;;;;;;;;;5014386;28;20674;-70
2022/03/29 08:42:33;;;;;;;0.10;0.10;;;;;;;;;;5024636;28;20749;-69
2022/03/29 08:45:01;;;;;;;0.10;0.10;;;;;;;;;;5012269;28;20714;-70
2022/03/29 08:47:28;;;;;;;0.10;0.10;;;;;;;;;;5008580;28;20626;-70
2022/03/29 08:49:56;;;;;;;0.20;0.20;;;;;;;;;;5011647;28;20663;-69
2022/03/29 08:52:23;;;;;;;0.10;0.10;;;;;;;;;;5026660;28;20631;-69
2022/03/29 08:54:51;;;;;;;0.10;0.10;;;;;;;;;;5012884;28;20663;-70
2022/03/29 08:57:18;;;;;;;0.10;0.10;;;;;;;;;;5010834;28;20702;-69
2022/03/29 08:59:47;;;;;;;0.10;0.10;;;;;;;;;;5019417;28;20722;-69
2022/03/29 09:02:15;;;;;;;0.10;0.10;;;;;;;;;;5011538;28;20640;-69
2022/03/29 09:04:43;;;;;;;0.10;0.10;;;;;;;;;;5010762;28;20627;-69
2022/03/29 09:07:10;;;;;;;0.10;0.10;;;;;;;;;;5008752;28;20618;-69
2022/03/29 09:09:38;;;;;;;0.10;0.10;;;;;;;;;;5017671;28;20650;-69
2022/03/29 09:12:16;;;;;;;0.10;0.10;;;;;;;;;;5008396;28;20623;-68
2022/03/29 09:14:55;;;;;;;0.13;0.13;;;;;;;;;;5003480;28;20659;-69
2022/03/29 09:17:27;;;;;;;0.20;0.20;;;;;;;;;;5006989;28;20632;-70
2022/03/29 09:19:55;;;;;;;0.10;0.10;;;;;;;;;;5007687;28;20678;-71
2022/03/29 09:22:35;;;;;;;0.10;0.10;;;;;;;;;;5006844;28;20753;-71
2022/03/29 09:25:03;;;;;;;0.10;0.10;;;;;;;;;;5032255;28;20750;-69
2022/03/29 09:27:31;;;;;;;0.10;0.10;;;;;;;;;;5027964;28;20639;-69
2022/03/29 09:30:08;;;;;;;0.10;0.10;;;;;;;;;;5026459;28;20658;-71
2022/03/29 09:32:36;;;;;;;0.10;0.10;;;;;;;;;;5014274;28;20665;-71
2022/03/29 09:35:04;;;;;;;0.10;0.10;;;;;;;;;;5028224;28;20658;-70
2022/03/29 09:37:35;;;;;;;0.10;0.10;;;;;;;;;;5009356;28;20603;-69
2022/03/29 09:40:02;;;;;;;0.20;0.20;;;;;;;;;;5014086;28;20658;-70
2022/03/29 09:42:59;;;;;;;0.10;0.10;;;;;;;;;;5005741;28;20626;-71
2022/03/29 09:45:40;;;;;;;0.10;0.10;;;;;;;;;;5023490;28;20621;-71
2022/03/29 09:48:20;;;;;;;0.10;0.10;;;;;;;;;;5010171;28;20713;-70
2022/03/29 09:50:48;;;;;;;0.10;0.10;;;;;;;;;;5003194;28;20782;-70
2022/03/29 09:53:29;;;;;;;0.10;0.10;;;;;;;;;;5029083;28;20717;-70
2022/03/29 09:55:59;;;;;;;0.10;0.10;;;;;;;;;;5007425;28;20714;-70
2022/03/29 09:58:27;;;;;;;0.10;0.10;;;;;;;;;;5013703;28;20612;-69
2022/03/29 10:00:56;;;;;;;0.10;0.10;;;;;;;;;;5023719;28;20674;-70
2022/03/29 10:03:26;;;;;;;0.10;0.10;;;;;;;;;;5023638;28;20646;-70
2022/03/29 10:06:01;;;;;;;0.10;0.10;;;;;;;;;;5009602;28;20623;-70
2022/03/29 10:11:14;;;;;;;0.10;0.10;;;;;;;;;;5012524;28;20563;-70
2022/03/29 10:13:42;;;;;;;0.10;0.10;;;;;;;;;;5008052;28;20639;-70
2022/03/29 10:16:14;;;;;;;0.10;0.10;;;;;;;;;;5021738;28;20624;-70
2022/03/29 10:18:44;;;;;;;0.10;0.10;;;;;;;;;;5009105;28;20617;-70
2022/03/29 10:21:13;;;;;;;0.10;0.10;;;;;;;;;;5003463;28;20722;-71
2022/03/29 10:23:40;;;;;;;0.10;0.10;;;;;;;;;;5004566;28;20713;-70
2022/03/29 10:26:08;;;;;;;0.10;0.10;;;;;;;;;;5007915;28;20701;-69
2022/03/29 10:28:36;;;;;;;0.10;0.10;;;;;;;;;;5029284;28;20620;-68
2022/03/29 10:31:03;;;;;;;0.10;0.10;;;;;;;;;;5008685;28;20226;-68
2022/03/29 10:33:33;;;;;;;0.10;0.10;;;;;;;;;;5029362;28;20728;-70
2022/03/29 10:36:01;;;;;;;0.10;0.10;;;;;;;;;;5026217;28;20225;-70
2022/03/29 10:38:44;;;;;;;0.10;0.10;;;;;;;;;;5008105;28;20685;-69
2022/03/29 10:41:26;;;;;;;0.10;0.10;;;;;;;;;;5010999;28;20339;-69
2022/03/29 10:43:54;;;;;;;0.10;0.10;;;;;;;;;;5000883;28;20196;-70
2022/03/29 10:46:25;;;;;;;0.10;0.10;;;;;;;;;;5007570;28;20227;-69
2022/03/29 10:49:07;;;;;;;0.10;0.10;;;;;;;;;;5003923;28;20205;-69
2022/03/29 10:51:35;;;;;;;0.10;0.10;;;;;;;;;;5004774;28;20284;-70
2022/03/29 10:54:24;;;;;;;0.10;0.10;;;;;;;;;;5009851;28;20197;-70
2022/03/29 10:56:59;;;;;;;0.10;0.10;;;;;;;;;;5020177;28;20227;-70
2022/03/29 10:59:27;;;;;;;0.10;0.10;;;;;;;;;;5027912;28;20192;-69
2022/03/29 11:02:14;;;;;;;0.10;0.10;;;;;;;;;;5005196;28;20224;-68
2022/03/29 11:05:01;;;;;;;0.10;0.10;;;;;;;;;;5008247;28;20300;-68
2022/03/29 11:07:30;;;;;;;0.10;0.10;;;;;;;;;;5008114;28;20300;-69
2022/03/29 11:10:14;;;;;;;0.10;0.10;;;;;;;;;;5004902;28;20235;-69
2022/03/29 11:12:46;;;;;;;0.10;0.10;;;;;;;;;;5017433;28;20197;-69
2022/03/29 11:15:40;;;;;;;0.10;0.10;;;;;;;;;;5004198;28;20236;-70
2022/03/29 11:18:22;;;;;;;0.10;0.10;;;;;;;;;;5019650;28;20209;-70
2022/03/29 11:20:53;;;;;;;0.10;0.10;;;;;;;;;;5011372;23;20239;-67
2022/03/29 11:23:31;;;;;;;0.10;0.10;;;;;;;;;;4989576;28;20209;-67
2022/03/29 11:26:05;;;;;;;0.10;0.10;;;;;;;;;;5001291;28;20241;-66
2022/03/29 11:28:32;;;;;;;0.10;0.10;;;;;;;;;;4993877;28;20247;-67
2022/03/29 11:30:59;;;;;;;0.10;0.10;;;;;;;;;;4996668;28;20277;-67
2022/03/29 11:33:32;;;;;;;0.10;0.10;;;;;;;;;;4982987;28;20201;-67
2022/03/29 11:35:59;;;;;;;0.10;0.10;;;;;;;;;;4977549;28;20226;-68
2022/03/29 11:38:32;;;;;;;0.10;0.10;;;;;;;;;;4981459;28;20213;-68
2022/03/29 11:40:59;;;;;;;0.10;0.10;;;;;;;;;;4976468;28;20289;-68
2022/03/29 11:43:27;;;;;;;0.10;0.10;;;;;;;;;;4983324;28;20205;-68
2022/03/29 11:45:55;;;;;;;0.10;0.10;;;;;;;;;;4980943;28;20216;-67
2022/03/29 11:48:24;;;;;;;0.00;0.00;;;;;;;;;;4982760;28;20260;-68
2022/03/29 11:50:52;;;;;;;0.10;0.10;;;;;;;;;;4975741;28;20228;-67
2022/03/29 11:53:21;;;;;;;0.10;0.10;;;;;;;;;;4984449;28;20316;-68
2022/03/29 11:56:00;;;;;;;0.00;0.00;;;;;;;;;;4984766;28;20756;-67
2022/03/29 11:58:28;;;;;;;0.10;0.10;;;;;;;;;;4995942;28;20205;-67
2022/03/29 12:01:03;;;;;;;0.10;0.10;;;;;;;;;;4984547;28;20223;-67
2022/03/29 12:03:34;;;;;;;0.10;0.10;;;7.00;99.90;;;;;;4984038;28;20301;-67
2022/03/29 12:06:13;;;;;;;0.10;0.10;;;14.10;99.90;;;;;;4979450;28;20201;-68
2022/03/29 12:08:52;;;;;;;0.10;0.10;;;13.70;99.90;;;;;;4976498;28;20201;-68
2022/03/29 12:11:26;;;;;;;0.10;0.10;;;13.80;99.90;;;;;;4980302;28;20221;-67
2022/03/29 12:14:04;;;;;;;0.10;0.10;;;14.00;99.90;;;;;;4978752;28;20201;-68
2022/03/29 12:16:34;;;;;;;0.10;0.10;;;14.20;99.90;;;;;;4984220;28;20225;-68
2022/03/29 12:19:00;;;;;;;0.10;0.10;;;14.30;99.90;;;;;;4978910;28;20265;-68
2022/03/29 12:21:27;;;;;;;0.10;0.10;;;14.20;99.90;;;;;;4977032;28;20233;-68
2022/03/29 12:24:04;;;;;;;0.10;0.10;;;13.90;99.90;;;;;;4978471;28;20210;-68
2022/03/29 12:26:33;;;;;;;0.03;0.03;;;13.70;99.90;;;;;;4981417;28;20213;-69
2022/03/29 12:29:02;;;;;;;0.10;0.10;;;13.50;99.90;;;;;;4977995;28;20202;-69
2022/03/29 12:31:30;;;;;;;0.10;0.10;;;13.50;99.90;;;;;;4981686;28;20221;-68
2022/03/29 12:34:00;;;;;;;0.00;0.00;;;13.60;99.90;;;;;;4984952;28;20201;-68
2022/03/29 12:36:27;;;;;;;0.10;0.10;;;13.70;99.90;;;;;;4981021;28;20225;-68
2022/03/29 12:38:56;;;;;;;0.10;0.10;;;13.90;99.90;;;;;;4985583;28;20308;-68
2022/03/29 12:41:37;;;;;;;0.10;0.10;;;14.10;99.90;;;;;;4980930;28;20229;-68
2022/03/29 12:44:07;;;;;;;0.10;0.10;;;;;;;;;;4986928;28;20263;-68
2022/03/29 12:46:35;;;;;;;0.00;0.00;;;;;;;;;;4984588;28;20202;-68
2022/03/29 12:49:02;;;;;;;0.10;0.10;;;;;;;;;;4984105;28;20292;-68
2022/03/29 12:51:31;;;;;;;0.10;0.10;;;;;;;;;;4979569;28;20233;-68
2022/03/29 12:53:59;;;;;;;0.10;0.10;;;;;;;;;;4982375;28;20198;-68
2022/03/29 12:56:30;;;;;;;0.10;0.10;;;;;;;;;;4982347;28;20300;-69
2022/03/29 12:58:59;;;;;;;0.10;0.10;;;;;;;;;;4984544;28;20213;-68
2022/03/29 13:01:29;;;;;;;0.10;0.10;;;;;;;;;;4981943;28;20232;-68
2022/03/29 13:04:06;;;;;;;0.10;0.10;;;;;;;;;;4983166;28;20201;-68
2022/03/29 13:06:44;;;;;;;0.10;0.10;;;;;;;;;;4983228;28;20206;-68
2022/03/29 13:09:16;;;;;;;0.00;0.00;;;;;;;;;;4997143;28;20210;-68
2022/03/29 13:11:43;;;;;;;0.10;0.10;;;;;;;;;;4995526;28;20687;-67
2022/03/29 13:14:12;;;;;;;0.10;0.10;;;;;;;;;;4979829;28;20213;-68
2022/03/29 13:16:52;;;;;;;0.00;0.00;;;;;;;;;;4983194;28;20249;-68
2022/03/29 13:19:20;;;;;;;0.00;0.00;;;;;;;;;;4985717;28;20247;-68
2022/03/29 13:21:47;;;;;;;0.10;0.10;;;;;;;;;;4984077;28;20425;-68
2022/03/29 13:24:16;;;;;;;0.10;0.10;;;;;;;;;;4985937;28;20763;-68
2022/03/29 13:26:46;;;;;;;0.10;0.10;;;;;;;;;;4986767;28;20201;-68
2022/03/29 13:29:15;;;;;;;0.00;0.00;;;;;;;;;;4978970;28;20209;-68
2022/03/29 13:31:44;;;;;;;0.00;0.00;;;;;;;;;;4985069;28;20229;-68
2022/03/29 13:34:13;;;;;;;0.07;0.07;;;;;;;;;;4985387;28;20293;-68
2022/03/29 13:36:41;;;;;;;0.00;0.00;;;;;;;;;;4983239;28;20221;-68
2022/03/29 13:39:09;;;;;;;0.10;0.10;;;;;;;;;;4985117;28;20220;-67
2022/03/29 13:41:37;;;;;;;0.07;0.07;;;;;;;;;;4980623;28;20221;-69
2022/03/29 13:44:04;;;;;;;0.10;0.10;;;;;;;;;;4983751;28;20209;-67
2022/03/29 13:46:33;;;;;;;0.10;0.10;;;;;;;;;;4986411;28;20284;-67
2022/03/29 13:49:02;;;;;;;0.10;0.10;;;;;;;;;;4980740;28;20209;-67
2022/03/29 13:51:29;;;;;;;0.00;0.00;;;;;;;;;;4978008;28;20225;-68
2022/03/29 13:53:56;;;;;;;0.10;0.10;;;;;;;;;;4984558;28;20212;-68
2022/03/29 13:56:31;;;;;;;0.00;0.00;;;;;;;;;;4982139;28;20715;-67
2022/03/29 13:58:58;;;;;;;0.00;0.00;;;;;;;;;;4981432;28;20233;-68
2022/03/29 14:01:25;;;;;;;0.10;0.10;;;;;;;;;;4985998;28;20280;-68
2022/03/29 14:03:54;;;;;;;0.07;0.07;;;;;;;;;;4999898;28;20269;-68
2022/03/29 14:06:21;;;;;;;0.00;0.00;;;;;;;;;;4984741;28;20197;-68
2022/03/29 14:08:49;;;;;;;0.00;0.00;;;;;;;;;;4988672;28;20193;-68
2022/03/29 14:11:17;;;;;;;0.00;0.00;;;;;;;;;;4987141;28;20225;-69
2022/03/29 14:13:44;;;;;;;0.00;0.00;;;;;;;;;;5000018;28;20225;-68
2022/03/29 14:16:11;;;;;;;0.10;0.10;;;;;;;;;;4986525;28;20285;-68
2022/03/29 14:18:39;;;;;;;0.10;0.10;;;;;;;;;;4986182;28;20202;-68
2022/03/29 14:21:07;;;;;;;0.10;0.10;;;;;;;;;;4988468;28;20327;-68
2022/03/29 14:23:34;;;;;;;0.10;0.10;;;;;;;;;;4986247;28;20228;-68
2022/03/29 14:26:02;;;;;;;0.00;0.00;;;;;;;;;;4984994;28;20186;-68
2022/03/29 14:28:30;;;;;;;0.00;0.00;;;;;;;;;;4987517;28;20205;-68
2022/03/29 14:31:00;;;;;;;0.10;0.10;;;;;;;;;;4989005;28;20225;-68
2022/03/29 14:33:29;;;;;;;0.10;0.10;;;;;;;;;;4985768;28;20236;-68
2022/03/29 14:35:56;;;;;;;0.00;0.00;;;;;;;;;;4987534;28;20229;-68
2022/03/29 14:38:25;;;;;;;0.10;0.10;;;;;;;;;;4984666;28;20204;-68
2022/03/29 14:40:52;;;;;;;0.10;0.10;;;;;;;;;;4986336;28;20213;-68
2022/03/29 14:43:19;;;;;;;0.00;0.00;;;;;;;;;;4986845;28;20220;-68
2022/03/29 14:45:48;;;;;;;0.10;0.10;;;;;;;;;;4985118;28;20201;-68